KFTY/FTY METAR and TAF weather

Enter ICAO airport designator
Station Type Date Time Source
KFTY METAR 2021/09/23 23:53 UTC NOAA

KFTY 232353Z 00000KT 10SM CLR 18/09 A3003 RMK AO2 SLP165 T01780094 10222 20178 53008


Station Type Date Time Source
KFTY Decoded METAR 2021/09/23 23:53 UTC NOAA

ATLANTA FULTON COUNTY AIRPORT , GA, United States (KFTY) 33-47N 84-31W 263M
Sep 23, 2021 - 07:53 PM EDT / 2021.09.23 2353 UTC
Wind: Calm:0
Visibility: 10 mile(s):0
Sky conditions: clear
Temperature: 64.0 F (17.8 C)
Dew Point: 48.9 F (9.4 C)
Relative Humidity: 57%
Pressure (altimeter): 30.03 in. Hg (1016 hPa)
Pressure tendency: 0.02 inches (0.8 hPa) higher than three hours ago
ob: KFTY 232353Z 00000KT 10SM CLR 18/09 A3003 RMK AO2 SLP165 T01780094 10222 20178 53008
cycle: 0

Station Type Date Time Source
KFTY TAF 2021/09/23 19:06 UTC NOAA

TAF
AMD KFTY 231903Z 2319/2418 33012G22KT P6SM SKC
FM240000 35005KT P6SM SKC
FM241400 04005KT P6SM SKC

Example: see airport list